sensor_id;sensor_type;location;lat;lon;timestamp;pressure;altitude;pressure_sealevel;temperature;humidity
9423;BME280;65863;49.506;10.400;2023-07-29T00:00:11;97504.34;;;16.40;100.00
9423;BME280;65863;49.506;10.400;2023-07-29T00:02:58;97587.13;;;16.81;100.00
9423;BME280;65863;49.506;10.400;2023-07-29T00:05:42;97532.22;;;16.43;100.00
9423;BME280;65863;49.506;10.400;2023-07-29T00:08:26;97580.72;;;16.81;100.00
9423;BME280;65863;49.506;10.400;2023-07-29T00:11:10;97584.75;;;16.78;100.00
9423;BME280;65863;49.506;10.400;2023-07-29T00:13:54;97598.00;;;16.85;100.00
9423;BME280;65863;49.506;10.400;2023-07-29T00:16:39;97565.47;;;16.64;100.00
9423;BME280;65863;49.506;10.400;2023-07-29T00:19:23;97586.72;;;16.75;100.00
9423;BME280;65863;49.506;10.400;2023-07-29T00:22:07;97578.88;;;16.64;100.00
9423;BME280;65863;49.506;10.400;2023-07-29T00:24:53;97540.00;;;16.33;100.00
9423;BME280;65863;49.506;10.400;2023-07-29T00:27:40;97515.72;;;16.08;100.00
9423;BME280;65863;49.506;10.400;2023-07-29T00:30:25;97581.16;;;16.56;100.00
9423;BME280;65863;49.506;10.400;2023-07-29T00:33:09;97562.53;;;16.31;100.00
9423;BME280;65863;49.506;10.400;2023-07-29T00:35:53;97551.88;;;16.20;100.00
9423;BME280;65863;49.506;10.400;2023-07-29T00:38:37;97573.53;;;16.37;100.00
9423;BME280;65863;49.506;10.400;2023-07-29T00:41:21;97567.81;;;16.25;100.00
9423;BME280;65863;49.506;10.400;2023-07-29T00:44:06;97537.41;;;15.94;100.00
9423;BME280;65863;49.506;10.400;2023-07-29T00:46:52;97539.34;;;15.91;100.00
9423;BME280;65863;49.506;10.400;2023-07-29T00:49:38;97546.22;;;15.88;100.00
9423;BME280;65863;49.506;10.400;2023-07-29T00:52:22;97558.69;;;15.95;100.00
9423;BME280;65863;49.506;10.400;2023-07-29T00:55:06;97571.66;;;15.98;100.00
9423;BME280;65863;49.506;10.400;2023-07-29T00:57:51;97566.63;;;15.87;100.00
9423;BME280;65863;49.506;10.400;2023-07-29T01:00:38;97488.91;;;15.27;100.00
9423;BME280;65863;49.506;10.400;2023-07-29T01:03:22;97582.09;;;15.76;100.00
9423;BME280;65863;49.506;10.400;2023-07-29T01:09:04;97584.25;;;15.46;100.00
9423;BME280;65863;49.506;10.400;2023-07-29T01:12:01;97566.28;;;15.22;100.00
9423;BME280;65863;49.506;10.400;2023-07-29T01:15:05;97576.56;;;15.17;100.00
9423;BME280;65863;49.506;10.400;2023-07-29T01:17:56;97543.09;;;14.94;100.00
9423;BME280;65863;49.506;10.400;2023-07-29T01:20:43;97548.00;;;14.84;100.00
9423;BME280;65863;49.506;10.400;2023-07-29T01:23:33;97580.91;;;15.08;100.00
9423;BME280;65863;49.506;10.400;2023-07-29T01:26:17;97518.25;;;14.53;100.00
9423;BME280;65863;49.506;10.400;2023-07-29T01:29:01;97562.13;;;14.74;100.00
9423;BME280;65863;49.506;10.400;2023-07-29T01:31:46;97547.66;;;14.60;100.00
9423;BME280;65863;49.506;10.400;2023-07-29T01:34:48;97568.03;;;14.58;100.00
9423;BME280;65863;49.506;10.400;2023-07-29T01:37:38;97529.94;;;14.30;100.00
9423;BME280;65863;49.506;10.400;2023-07-29T01:40:25;97577.69;;;14.55;100.00
9423;BME280;65863;49.506;10.400;2023-07-29T01:43:10;97569.06;;;14.53;100.00
9423;BME280;65863;49.506;10.400;2023-07-29T01:45:56;97475.31;;;13.78;100.00
9423;BME280;65863;49.506;10.400;2023-07-29T01:48:40;97504.28;;;13.89;100.00
9423;BME280;65863;49.506;10.400;2023-07-29T01:51:24;97523.97;;;14.16;100.00
9423;BME280;65863;49.506;10.400;2023-07-29T01:54:08;97485.50;;;14.11;100.00
9423;BME280;65863;49.506;10.400;2023-07-29T01:56:54;97540.25;;;14.55;100.00
9423;BME280;65863;49.506;10.400;2023-07-29T01:59:38;97484.31;;;14.14;100.00
9423;BME280;65863;49.506;10.400;2023-07-29T02:02:22;97430.16;;;13.69;100.00
9423;BME280;65863;49.506;10.400;2023-07-29T02:05:06;97531.16;;;14.46;100.00
9423;BME280;65863;49.506;10.400;2023-07-29T02:07:50;97527.00;;;14.38;100.00
9423;BME280;65863;49.506;10.400;2023-07-29T02:10:34;97490.81;;;14.07;100.00
9423;BME280;65863;49.506;10.400;2023-07-29T02:13:18;97530.09;;;14.22;100.00
9423;BME280;65863;49.506;10.400;2023-07-29T02:16:02;97429.66;;;13.53;100.00
9423;BME280;65863;49.506;10.400;2023-07-29T02:18:47;97520.91;;;14.51;100.00
9423;BME280;65863;49.506;10.400;2023-07-29T02:21:31;97513.47;;;14.46;100.00
9423;BME280;65863;49.506;10.400;2023-07-29T02:24:15;97526.56;;;14.51;100.00
9423;BME280;65863;49.506;10.400;2023-07-29T02:26:59;97508.25;;;14.42;100.00
9423;BME280;65863;49.506;10.400;2023-07-29T02:29:43;97480.63;;;14.31;100.00
9423;BME280;65863;49.506;10.400;2023-07-29T02:32:27;97370.91;;;13.59;100.00
9423;BME280;65863;49.506;10.400;2023-07-29T02:35:12;97519.88;;;14.56;100.00
9423;BME280;65863;49.506;10.400;2023-07-29T02:37:56;97453.56;;;14.08;100.00
9423;BME280;65863;49.506;10.400;2023-07-29T02:40:40;97467.06;;;14.10;100.00
9423;BME280;65863;49.506;10.400;2023-07-29T02:43:25;97505.00;;;14.36;100.00
9423;BME280;65863;49.506;10.400;2023-07-29T02:46:09;97519.56;;;14.42;100.00
9423;BME280;65863;49.506;10.400;2023-07-29T02:48:53;97540.97;;;14.55;100.00
9423;BME280;65863;49.506;10.400;2023-07-29T02:51:37;97510.78;;;14.38;100.00
9423;BME280;65863;49.506;10.400;2023-07-29T02:54:21;97523.59;;;14.49;100.00
9423;BME280;65863;49.506;10.400;2023-07-29T02:57:05;97512.00;;;14.45;100.00
9423;BME280;65863;49.506;10.400;2023-07-29T02:59:50;97529.97;;;14.50;100.00
9423;BME280;65863;49.506;10.400;2023-07-29T03:02:33;97530.41;;;14.56;100.00
9423;BME280;65863;49.506;10.400;2023-07-29T03:05:18;97304.72;;;13.03;100.00
9423;BME280;65863;49.506;10.400;2023-07-29T03:08:02;97510.94;;;14.60;100.00
9423;BME280;65863;49.506;10.400;2023-07-29T03:10:46;97463.38;;;14.37;100.00
9423;BME280;65863;49.506;10.400;2023-07-29T03:13:30;97500.88;;;14.76;100.00
9423;BME280;65863;49.506;10.400;2023-07-29T03:16:15;97478.56;;;14.80;100.00
9423;BME280;65863;49.506;10.400;2023-07-29T03:19:05;97493.88;;;14.97;100.00
9423;BME280;65863;49.506;10.400;2023-07-29T03:21:50;97451.38;;;14.66;100.00
9423;BME280;65863;49.506;10.400;2023-07-29T03:24:34;97492.97;;;15.04;100.00
9423;BME280;65863;49.506;10.400;2023-07-29T03:27:18;97504.59;;;14.98;100.00
9423;BME280;65863;49.506;10.400;2023-07-29T03:30:05;97494.47;;;14.95;100.00
9423;BME280;65863;49.506;10.400;2023-07-29T03:32:50;97505.91;;;15.07;100.00
9423;BME280;65863;49.506;10.400;2023-07-29T03:35:34;97498.56;;;15.24;100.00
9423;BME280;65863;49.506;10.400;2023-07-29T03:38:18;97472.56;;;15.25;100.00
9423;BME280;65863;49.506;10.400;2023-07-29T03:41:03;97500.91;;;15.47;100.00
9423;BME280;65863;49.506;10.400;2023-07-29T03:43:47;97498.66;;;15.55;100.00
9423;BME280;65863;49.506;10.400;2023-07-29T03:46:31;97470.53;;;15.47;100.00
9423;BME280;65863;49.506;10.400;2023-07-29T03:49:15;97471.81;;;15.66;100.00
9423;BME280;65863;49.506;10.400;2023-07-29T03:51:59;97487.22;;;15.84;100.00
9423;BME280;65863;49.506;10.400;2023-07-29T03:54:43;97474.59;;;15.76;100.00
9423;BME280;65863;49.506;10.400;2023-07-29T03:57:26;97409.13;;;15.38;100.00
9423;BME280;65863;49.506;10.400;2023-07-29T04:00:10;97408.94;;;15.46;100.00
9423;BME280;65863;49.506;10.400;2023-07-29T04:02:59;97449.88;;;15.76;100.00
9423;BME280;65863;49.506;10.400;2023-07-29T04:05:43;97418.38;;;15.60;100.00
9423;BME280;65863;49.506;10.400;2023-07-29T04:08:27;97474.88;;;16.11;100.00
9423;BME280;65863;49.506;10.400;2023-07-29T04:11:12;97449.94;;;15.98;100.00
9423;BME280;65863;49.506;10.400;2023-07-29T04:13:56;97457.53;;;15.95;100.00
9423;BME280;65863;49.506;10.400;2023-07-29T04:16:40;97446.28;;;15.86;100.00
9423;BME280;65863;49.506;10.400;2023-07-29T04:19:24;97443.16;;;15.81;100.00
9423;BME280;65863;49.506;10.400;2023-07-29T04:22:08;97433.34;;;15.82;100.00
9423;BME280;65863;49.506;10.400;2023-07-29T04:24:52;97468.75;;;16.15;100.00
9423;BME280;65863;49.506;10.400;2023-07-29T04:27:36;97434.78;;;16.15;100.00
9423;BME280;65863;49.506;10.400;2023-07-29T04:30:20;97448.72;;;16.23;100.00
9423;BME280;65863;49.506;10.400;2023-07-29T04:33:05;97449.34;;;16.21;100.00
9423;BME280;65863;49.506;10.400;2023-07-29T04:35:49;97436.00;;;16.12;100.00
9423;BME280;65863;49.506;10.400;2023-07-29T04:38:33;97445.91;;;16.23;100.00
9423;BME280;65863;49.506;10.400;2023-07-29T04:41:17;97444.22;;;16.29;100.00
9423;BME280;65863;49.506;10.400;2023-07-29T04:44:02;97435.84;;;16.31;100.00
9423;BME280;65863;49.506;10.400;2023-07-29T04:46:45;97456.88;;;16.50;100.00
9423;BME280;65863;49.506;10.400;2023-07-29T04:49:30;97442.13;;;16.51;100.00
9423;BME280;65863;49.506;10.400;2023-07-29T04:52:14;97389.06;;;16.30;100.00
9423;BME280;65863;49.506;10.400;2023-07-29T04:54:59;97390.88;;;16.47;100.00
9423;BME280;65863;49.506;10.400;2023-07-29T04:57:42;97411.59;;;16.62;100.00
9423;BME280;65863;49.506;10.400;2023-07-29T05:00:27;97428.03;;;16.75;100.00
9423;BME280;65863;49.506;10.400;2023-07-29T05:03:11;97454.06;;;16.83;100.00
9423;BME280;65863;49.506;10.400;2023-07-29T05:05:55;97420.75;;;16.72;100.00
9423;BME280;65863;49.506;10.400;2023-07-29T05:08:41;97398.78;;;16.61;100.00
9423;BME280;65863;49.506;10.400;2023-07-29T05:11:25;97410.50;;;16.67;100.00
9423;BME280;65863;49.506;10.400;2023-07-29T05:14:09;97410.28;;;16.75;100.00
9423;BME280;65863;49.506;10.400;2023-07-29T05:16:53;97443.53;;;16.96;100.00
9423;BME280;65863;49.506;10.400;2023-07-29T05:19:37;97361.94;;;16.49;100.00
9423;BME280;65863;49.506;10.400;2023-07-29T05:22:22;97449.50;;;17.24;100.00
9423;BME280;65863;49.506;10.400;2023-07-29T05:25:06;97449.63;;;17.26;100.00
9423;BME280;65863;49.506;10.400;2023-07-29T05:27:50;97439.38;;;17.20;100.00
9423;BME280;65863;49.506;10.400;2023-07-29T05:30:34;97433.97;;;17.25;100.00
9423;BME280;65863;49.506;10.400;2023-07-29T05:33:21;97449.50;;;17.24;100.00
9423;BME280;65863;49.506;10.400;2023-07-29T05:36:06;97443.97;;;17.26;100.00
9423;BME280;65863;49.506;10.400;2023-07-29T05:38:51;97453.19;;;17.26;100.00
9423;BME280;65863;49.506;10.400;2023-07-29T05:41:36;97443.69;;;17.21;100.00
9423;BME280;65863;49.506;10.400;2023-07-29T05:44:20;97272.84;;;15.95;100.00
9423;BME280;65863;49.506;10.400;2023-07-29T05:47:04;97477.66;;;17.43;100.00
9423;BME280;65863;49.506;10.400;2023-07-29T05:49:48;97455.94;;;17.24;100.00
9423;BME280;65863;49.506;10.400;2023-07-29T05:52:33;97470.13;;;17.36;100.00
9423;BME280;65863;49.506;10.400;2023-07-29T05:55:17;97463.19;;;17.15;100.00
9423;BME280;65863;49.506;10.400;2023-07-29T05:58:01;97481.09;;;17.30;100.00
9423;BME280;65863;49.506;10.400;2023-07-29T06:00:45;97502.53;;;17.33;100.00
9423;BME280;65863;49.506;10.400;2023-07-29T06:03:29;97500.19;;;17.29;100.00
9423;BME280;65863;49.506;10.400;2023-07-29T06:06:13;97506.13;;;17.33;100.00
9423;BME280;65863;49.506;10.400;2023-07-29T06:08:57;97484.00;;;17.08;100.00
9423;BME280;65863;49.506;10.400;2023-07-29T06:11:42;97503.00;;;17.17;100.00
9423;BME280;65863;49.506;10.400;2023-07-29T06:14:26;97519.69;;;17.35;100.00
9423;BME280;65863;49.506;10.400;2023-07-29T06:17:10;97525.75;;;17.41;100.00
9423;BME280;65863;49.506;10.400;2023-07-29T06:19:55;97515.22;;;17.32;100.00
9423;BME280;65863;49.506;10.400;2023-07-29T06:22:39;97518.59;;;17.40;100.00
9423;BME280;65863;49.506;10.400;2023-07-29T06:25:23;97470.19;;;17.02;100.00
9423;BME280;65863;49.506;10.400;2023-07-29T06:28:08;97495.38;;;17.20;100.00
9423;BME280;65863;49.506;10.400;2023-07-29T06:30:52;97481.53;;;17.02;100.00
9423;BME280;65863;49.506;10.400;2023-07-29T06:33:36;97507.31;;;17.18;100.00
9423;BME280;65863;49.506;10.400;2023-07-29T06:36:20;97516.72;;;17.33;100.00
9423;BME280;65863;49.506;10.400;2023-07-29T06:39:04;97465.72;;;16.99;100.00
9423;BME280;65863;49.506;10.400;2023-07-29T06:41:49;97452.38;;;16.90;100.00
9423;BME280;65863;49.506;10.400;2023-07-29T06:44:35;97482.06;;;17.23;100.00
9423;BME280;65863;49.506;10.400;2023-07-29T06:47:19;97497.13;;;17.37;100.00
9423;BME280;65863;49.506;10.400;2023-07-29T06:50:04;97323.19;;;16.30;100.00
9423;BME280;65863;49.506;10.400;2023-07-29T06:52:47;97488.72;;;17.27;100.00
9423;BME280;65863;49.506;10.400;2023-07-29T06:55:31;97485.16;;;17.38;100.00
9423;BME280;65863;49.506;10.400;2023-07-29T06:58:15;97489.72;;;17.32;100.00
9423;BME280;65863;49.506;10.400;2023-07-29T07:00:59;97498.25;;;17.44;100.00
9423;BME280;65863;49.506;10.400;2023-07-29T07:03:43;97460.09;;;17.11;100.00
9423;BME280;65863;49.506;10.400;2023-07-29T07:06:28;97507.75;;;17.48;100.00
9423;BME280;65863;49.506;10.400;2023-07-29T07:09:12;97469.22;;;17.21;100.00
9423;BME280;65863;49.506;10.400;2023-07-29T07:11:56;97508.88;;;17.55;100.00
9423;BME280;65863;49.506;10.400;2023-07-29T07:14:40;97469.63;;;17.40;100.00
9423;BME280;65863;49.506;10.400;2023-07-29T07:17:36;97492.34;;;17.63;100.00
9423;BME280;65863;49.506;10.400;2023-07-29T07:20:20;97462.47;;;17.38;100.00
9423;BME280;65863;49.506;10.400;2023-07-29T07:23:04;97441.34;;;17.18;100.00
9423;BME280;65863;49.506;10.400;2023-07-29T07:25:55;97499.25;;;17.60;100.00
9423;BME280;65863;49.506;10.400;2023-07-29T07:28:39;97489.97;;;17.48;100.00
9423;BME280;65863;49.506;10.400;2023-07-29T07:31:23;97481.00;;;17.51;100.00
9423;BME280;65863;49.506;10.400;2023-07-29T07:34:07;97435.97;;;17.46;100.00
9423;BME280;65863;49.506;10.400;2023-07-29T07:36:51;97452.00;;;17.65;100.00
9423;BME280;65863;49.506;10.400;2023-07-29T07:39:36;97467.94;;;17.94;100.00
9423;BME280;65863;49.506;10.400;2023-07-29T07:42:20;97464.22;;;18.03;100.00
9423;BME280;65863;49.506;10.400;2023-07-29T07:45:04;97460.16;;;18.06;100.00
9423;BME280;65863;49.506;10.400;2023-07-29T07:47:48;97477.66;;;18.26;100.00
9423;BME280;65863;49.506;10.400;2023-07-29T07:50:33;97488.16;;;18.23;100.00
9423;BME280;65863;49.506;10.400;2023-07-29T07:53:17;97486.66;;;18.22;100.00
9423;BME280;65863;49.506;10.400;2023-07-29T07:56:01;97420.66;;;17.86;100.00
9423;BME280;65863;49.506;10.400;2023-07-29T07:58:45;97473.84;;;18.10;100.00
9423;BME280;65863;49.506;10.400;2023-07-29T08:01:36;97433.25;;;17.71;100.00
9423;BME280;65863;49.506;10.400;2023-07-29T08:04:21;97443.88;;;17.95;100.00
9423;BME280;65863;49.506;10.400;2023-07-29T08:07:05;97462.25;;;18.17;100.00
9423;BME280;65863;49.506;10.400;2023-07-29T08:09:51;97458.06;;;18.06;100.00
9423;BME280;65863;49.506;10.400;2023-07-29T08:12:41;97406.59;;;17.65;100.00
9423;BME280;65863;49.506;10.400;2023-07-29T08:15:25;97473.06;;;18.33;100.00
9423;BME280;65863;49.506;10.400;2023-07-29T08:18:09;97450.03;;;18.15;100.00
9423;BME280;65863;49.506;10.400;2023-07-29T08:20:57;97485.91;;;18.46;100.00
9423;BME280;65863;49.506;10.400;2023-07-29T08:23:42;97243.72;;;16.73;100.00
9423;BME280;65863;49.506;10.400;2023-07-29T08:26:26;97248.66;;;16.84;100.00
9423;BME280;65863;49.506;10.400;2023-07-29T08:29:11;97310.38;;;17.57;100.00
9423;BME280;65863;49.506;10.400;2023-07-29T08:32:00;97259.50;;;17.12;100.00
9423;BME280;65863;49.506;10.400;2023-07-29T08:34:46;97333.28;;;17.85;100.00
9423;BME280;65863;49.506;10.400;2023-07-29T08:37:40;97513.09;;;19.12;100.00
9423;BME280;65863;49.506;10.400;2023-07-29T08:40:27;97255.91;;;17.47;100.00
9423;BME280;65863;49.506;10.400;2023-07-29T08:43:31;97521.47;;;19.22;100.00
9423;BME280;65863;49.506;10.400;2023-07-29T08:46:19;97277.25;;;17.85;100.00
9423;BME280;65863;49.506;10.400;2023-07-29T08:49:18;97262.00;;;17.67;100.00
9423;BME280;65863;49.506;10.400;2023-07-29T08:52:06;97266.31;;;17.68;100.00
9423;BME280;65863;49.506;10.400;2023-07-29T08:54:51;97301.31;;;17.84;100.00
9423;BME280;65863;49.506;10.400;2023-07-29T08:57:37;97507.03;;;19.57;99.81
9423;BME280;65863;49.506;10.400;2023-07-29T09:00:22;97509.91;;;19.71;99.13
9423;BME280;65863;49.506;10.400;2023-07-29T09:03:06;97498.84;;;19.64;98.78
9423;BME280;65863;49.506;10.400;2023-07-29T09:05:51;97467.53;;;19.77;98.12
9423;BME280;65863;49.506;10.400;2023-07-29T09:08:37;97378.63;;;19.93;97.54
9423;BME280;65863;49.506;10.400;2023-07-29T09:11:21;97303.13;;;19.78;94.77
9423;BME280;65863;49.506;10.400;2023-07-29T09:14:05;97519.41;;;21.17;92.24
9423;BME280;65863;49.506;10.400;2023-07-29T09:16:49;97472.66;;;20.64;90.97
9423;BME280;65863;49.506;10.400;2023-07-29T09:19:34;97458.44;;;20.94;91.24
9423;BME280;65863;49.506;10.400;2023-07-29T09:22:19;97463.81;;;21.18;89.65
9423;BME280;65863;49.506;10.400;2023-07-29T09:25:03;97395.09;;;20.82;88.84
9423;BME280;65863;49.506;10.400;2023-07-29T09:27:48;97508.66;;;21.61;88.27
9423;BME280;65863;49.506;10.400;2023-07-29T09:30:32;97500.84;;;21.78;88.14
9423;BME280;65863;49.506;10.400;2023-07-29T09:33:18;97291.47;;;20.61;86.88
9423;BME280;65863;49.506;10.400;2023-07-29T09:36:09;97501.84;;;22.50;85.40
9423;BME280;65863;49.506;10.400;2023-07-29T09:38:54;97507.97;;;22.43;83.77
9423;BME280;65863;49.506;10.400;2023-07-29T09:41:39;97485.13;;;22.11;83.07
9423;BME280;65863;49.506;10.400;2023-07-29T09:44:23;97465.06;;;21.77;83.89
9423;BME280;65863;49.506;10.400;2023-07-29T09:47:07;97472.91;;;21.60;84.35
9423;BME280;65863;49.506;10.400;2023-07-29T09:49:51;97487.38;;;21.96;85.25
9423;BME280;65863;49.506;10.400;2023-07-29T09:52:36;97464.03;;;22.02;84.66
9423;BME280;65863;49.506;10.400;2023-07-29T09:55:24;97486.94;;;22.70;83.04
9423;BME280;65863;49.506;10.400;2023-07-29T09:58:09;97483.09;;;22.81;81.55
9423;BME280;65863;49.506;10.400;2023-07-29T10:00:53;97488.63;;;23.11;79.40
9423;BME280;65863;49.506;10.400;2023-07-29T10:03:37;97336.94;;;22.93;78.92
9423;BME280;65863;49.506;10.400;2023-07-29T10:06:22;97470.38;;;23.79;75.80
9423;BME280;65863;49.506;10.400;2023-07-29T10:09:06;97508.44;;;23.99;74.28
9423;BME280;65863;49.506;10.400;2023-07-29T10:11:51;97501.00;;;23.36;74.40
9423;BME280;65863;49.506;10.400;2023-07-29T10:14:38;97471.19;;;22.87;74.24
9423;BME280;65863;49.506;10.400;2023-07-29T10:17:22;97501.31;;;22.72;75.41
9423;BME280;65863;49.506;10.400;2023-07-29T10:20:09;97464.00;;;22.18;76.42
9423;BME280;65863;49.506;10.400;2023-07-29T10:22:55;97400.66;;;21.90;77.43
9423;BME280;65863;49.506;10.400;2023-07-29T10:25:44;97505.00;;;22.75;77.55
9423;BME280;65863;49.506;10.400;2023-07-29T10:28:31;97489.66;;;22.16;77.40
9423;BME280;65863;49.506;10.400;2023-07-29T10:31:16;97501.56;;;22.10;78.95
9423;BME280;65863;49.506;10.400;2023-07-29T10:34:01;97493.06;;;21.64;79.67
9423;BME280;65863;49.506;10.400;2023-07-29T10:36:46;97497.22;;;21.77;80.58
9423;BME280;65863;49.506;10.400;2023-07-29T10:39:38;97485.78;;;21.77;82.43
9423;BME280;65863;49.506;10.400;2023-07-29T10:42:23;97485.66;;;21.27;83.68
9423;BME280;65863;49.506;10.400;2023-07-29T10:45:18;97489.78;;;20.51;83.25
9423;BME280;65863;49.506;10.400;2023-07-29T10:51:36;97452.50;;;20.74;86.28
9423;BME280;65863;49.506;10.400;2023-07-29T10:54:21;97480.09;;;21.61;86.88
9423;BME280;65863;49.506;10.400;2023-07-29T10:57:05;97483.41;;;22.72;86.60
9423;BME280;65863;49.506;10.400;2023-07-29T10:59:56;97471.03;;;23.01;81.26
9423;BME280;65863;49.506;10.400;2023-07-29T11:02:41;97479.25;;;23.29;78.79
9423;BME280;65863;49.506;10.400;2023-07-29T11:05:25;97488.19;;;23.19;76.41
9423;BME280;65863;49.506;10.400;2023-07-29T11:08:28;97488.97;;;23.03;75.64
9423;BME280;65863;49.506;10.400;2023-07-29T11:11:13;97445.91;;;22.63;75.10
9423;BME280;65863;49.506;10.400;2023-07-29T11:13:59;97380.84;;;22.82;74.89
9423;BME280;65863;49.506;10.400;2023-07-29T11:16:43;97475.72;;;24.06;73.25
9423;BME280;65863;49.506;10.400;2023-07-29T11:19:28;97462.31;;;24.33;70.83
9423;BME280;65863;49.506;10.400;2023-07-29T11:22:12;97470.63;;;24.25;68.91
9423;BME280;65863;49.506;10.400;2023-07-29T11:24:56;97444.00;;;24.43;69.26
9423;BME280;65863;49.506;10.400;2023-07-29T11:27:41;97445.88;;;23.94;69.11
9423;BME280;65863;49.506;10.400;2023-07-29T11:30:25;97355.91;;;23.61;70.52
9423;BME280;65863;49.506;10.400;2023-07-29T11:33:13;97398.56;;;24.35;68.33
9423;BME280;65863;49.506;10.400;2023-07-29T11:35:57;97443.16;;;24.60;66.93
9423;BME280;65863;49.506;10.400;2023-07-29T11:38:41;97459.09;;;24.23;68.15
9423;BME280;65863;49.506;10.400;2023-07-29T11:41:25;97450.06;;;24.53;68.10
9423;BME280;65863;49.506;10.400;2023-07-29T11:44:10;97444.44;;;24.77;66.96
9423;BME280;65863;49.506;10.400;2023-07-29T11:47:00;97469.16;;;25.10;66.10
9423;BME280;65863;49.506;10.400;2023-07-29T11:49:44;97455.84;;;25.43;66.76
9423;BME280;65863;49.506;10.400;2023-07-29T11:52:28;97462.97;;;25.67;64.24
9423;BME280;65863;49.506;10.400;2023-07-29T11:55:14;97451.97;;;25.59;63.77
9423;BME280;65863;49.506;10.400;2023-07-29T11:57:58;97428.59;;;24.98;64.42
9423;BME280;65863;49.506;10.400;2023-07-29T12:00:43;97432.34;;;25.27;64.06
9423;BME280;65863;49.506;10.400;2023-07-29T12:03:27;97428.94;;;25.57;62.62
9423;BME280;65863;49.506;10.400;2023-07-29T12:06:11;97403.69;;;25.53;61.52
9423;BME280;65863;49.506;10.400;2023-07-29T12:08:55;97417.03;;;24.96;59.14
9423;BME280;65863;49.506;10.400;2023-07-29T12:11:39;97430.28;;;24.61;60.54
9423;BME280;65863;49.506;10.400;2023-07-29T12:14:28;97422.59;;;24.90;61.11
9423;BME280;65863;49.506;10.400;2023-07-29T12:17:13;97422.25;;;25.50;61.38
9423;BME280;65863;49.506;10.400;2023-07-29T12:19:59;97435.59;;;25.39;60.65
9423;BME280;65863;49.506;10.400;2023-07-29T12:22:42;97408.44;;;25.20;61.78
9423;BME280;65863;49.506;10.400;2023-07-29T12:25:27;97372.41;;;24.47;61.33
9423;BME280;65863;49.506;10.400;2023-07-29T12:28:11;97435.41;;;24.65;63.62
9423;BME280;65863;49.506;10.400;2023-07-29T12:30:56;97415.56;;;24.29;62.82
9423;BME280;65863;49.506;10.400;2023-07-29T12:33:40;97411.97;;;24.50;63.66
9423;BME280;65863;49.506;10.400;2023-07-29T12:36:45;97399.66;;;24.68;62.56
9423;BME280;65863;49.506;10.400;2023-07-29T12:39:31;97429.06;;;25.61;60.62
9423;BME280;65863;49.506;10.400;2023-07-29T12:42:16;97408.72;;;26.05;60.27
9423;BME280;65863;49.506;10.400;2023-07-29T12:45:00;97400.09;;;26.05;57.91
9423;BME280;65863;49.506;10.400;2023-07-29T12:47:44;97408.81;;;25.57;58.22
9423;BME280;65863;49.506;10.400;2023-07-29T12:50:28;97410.81;;;25.76;60.32
9423;BME280;65863;49.506;10.400;2023-07-29T12:53:13;97421.03;;;25.82;61.02
9423;BME280;65863;49.506;10.400;2023-07-29T12:55:57;97370.00;;;25.56;60.63
9423;BME280;65863;49.506;10.400;2023-07-29T12:58:41;97358.00;;;25.37;60.85
9423;BME280;65863;49.506;10.400;2023-07-29T13:01:26;97382.59;;;25.44;60.76
9423;BME280;65863;49.506;10.400;2023-07-29T13:04:10;97409.88;;;26.22;59.89
9423;BME280;65863;49.506;10.400;2023-07-29T13:06:55;97393.06;;;25.58;59.21
9423;BME280;65863;49.506;10.400;2023-07-29T13:09:40;97373.38;;;25.48;60.16
9423;BME280;65863;49.506;10.400;2023-07-29T13:12:24;97391.94;;;25.69;59.43
9423;BME280;65863;49.506;10.400;2023-07-29T13:15:08;97388.28;;;25.93;59.30
9423;BME280;65863;49.506;10.400;2023-07-29T13:17:51;97389.03;;;25.95;58.98
9423;BME280;65863;49.506;10.400;2023-07-29T13:20:35;97388.78;;;26.11;58.42
9423;BME280;65863;49.506;10.400;2023-07-29T13:23:21;97353.66;;;25.63;57.33
9423;BME280;65863;49.506;10.400;2023-07-29T13:26:05;97362.72;;;26.05;58.64
9423;BME280;65863;49.506;10.400;2023-07-29T13:28:48;97380.19;;;26.14;58.03
9423;BME280;65863;49.506;10.400;2023-07-29T13:31:32;97372.16;;;25.55;57.58
9423;BME280;65863;49.506;10.400;2023-07-29T13:34:16;97376.69;;;25.38;57.54
9423;BME280;65863;49.506;10.400;2023-07-29T13:37:01;97363.84;;;25.41;57.54
9423;BME280;65863;49.506;10.400;2023-07-29T13:39:45;97343.94;;;25.23;56.24
9423;BME280;65863;49.506;10.400;2023-07-29T13:42:29;97387.44;;;25.62;56.53
9423;BME280;65863;49.506;10.400;2023-07-29T13:45:13;97330.25;;;25.22;56.44
9423;BME280;65863;49.506;10.400;2023-07-29T13:47:57;97311.66;;;24.74;57.58
9423;BME280;65863;49.506;10.400;2023-07-29T13:50:41;97407.31;;;25.80;58.04
9423;BME280;65863;49.506;10.400;2023-07-29T13:53:26;97389.56;;;25.88;57.40
9423;BME280;65863;49.506;10.400;2023-07-29T13:56:10;97363.72;;;25.37;57.95
9423;BME280;65863;49.506;10.400;2023-07-29T13:59:08;97400.31;;;25.61;58.30
9423;BME280;65863;49.506;10.400;2023-07-29T14:01:52;97389.41;;;25.82;58.25
9423;BME280;65863;49.506;10.400;2023-07-29T14:04:36;97398.06;;;25.57;57.73
9423;BME280;65863;49.506;10.400;2023-07-29T14:07:19;97372.66;;;25.23;59.04
9423;BME280;65863;49.506;10.400;2023-07-29T14:10:04;97370.56;;;25.02;59.80
9423;BME280;65863;49.506;10.400;2023-07-29T14:12:48;97382.28;;;25.32;59.62
9423;BME280;65863;49.506;10.400;2023-07-29T14:15:32;97391.28;;;25.73;58.13
9423;BME280;65863;49.506;10.400;2023-07-29T14:18:16;97386.63;;;25.86;56.06
9423;BME280;65863;49.506;10.400;2023-07-29T14:21:00;97391.59;;;26.09;54.58
9423;BME280;65863;49.506;10.400;2023-07-29T14:23:44;97400.00;;;26.01;52.84
9423;BME280;65863;49.506;10.400;2023-07-29T14:26:28;97316.63;;;25.47;53.09
9423;BME280;65863;49.506;10.400;2023-07-29T14:29:12;97360.13;;;26.16;52.82
9423;BME280;65863;49.506;10.400;2023-07-29T14:31:56;97387.16;;;26.04;50.97
9423;BME280;65863;49.506;10.400;2023-07-29T14:34:41;97397.13;;;26.01;50.63